sensor_id;sensor_type;location;lat;lon;timestamp;temperature;humidity
42135;DHT22;28312;43.460;11.810;2023-12-28T00:00:35;7.30;75.30
42135;DHT22;28312;43.460;11.810;2023-12-28T00:04:40;7.40;75.30
42135;DHT22;28312;43.460;11.810;2023-12-28T00:08:43;7.50;75.40
42135;DHT22;28312;43.460;11.810;2023-12-28T00:12:58;7.50;75.40
42135;DHT22;28312;43.460;11.810;2023-12-28T00:17:02;7.70;75.40
42135;DHT22;28312;43.460;11.810;2023-12-28T00:21:05;7.70;75.40
42135;DHT22;28312;43.460;11.810;2023-12-28T00:25:09;7.70;75.30
42135;DHT22;28312;43.460;11.810;2023-12-28T00:29:13;7.80;75.30
42135;DHT22;28312;43.460;11.810;2023-12-28T00:33:16;7.90;75.30
42135;DHT22;28312;43.460;11.810;2023-12-28T00:37:20;7.90;75.20
42135;DHT22;28312;43.460;11.810;2023-12-28T00:41:25;8.00;75.20
42135;DHT22;28312;43.460;11.810;2023-12-28T00:45:28;8.00;75.20
42135;DHT22;28312;43.460;11.810;2023-12-28T00:49:32;8.00;75.20
42135;DHT22;28312;43.460;11.810;2023-12-28T00:53:36;8.10;75.20
42135;DHT22;28312;43.460;11.810;2023-12-28T00:57:39;8.10;75.30
42135;DHT22;28312;43.460;11.810;2023-12-28T01:01:43;8.10;75.30
42135;DHT22;28312;43.460;11.810;2023-12-28T01:05:47;8.20;75.40
42135;DHT22;28312;43.460;11.810;2023-12-28T01:09:53;8.20;75.40
42135;DHT22;28312;43.460;11.810;2023-12-28T01:13:57;8.20;75.30
42135;DHT22;28312;43.460;11.810;2023-12-28T01:18:02;8.20;75.30
42135;DHT22;28312;43.460;11.810;2023-12-28T01:22:06;8.20;75.30
42135;DHT22;28312;43.460;11.810;2023-12-28T01:26:14;8.30;75.30
42135;DHT22;28312;43.460;11.810;2023-12-28T01:30:17;8.30;75.30
42135;DHT22;28312;43.460;11.810;2023-12-28T01:34:21;8.30;75.20
42135;DHT22;28312;43.460;11.810;2023-12-28T01:38:25;8.40;75.30
42135;DHT22;28312;43.460;11.810;2023-12-28T01:42:29;8.40;75.20
42135;DHT22;28312;43.460;11.810;2023-12-28T01:46:34;8.40;75.20
42135;DHT22;28312;43.460;11.810;2023-12-28T01:50:38;8.50;75.30
42135;DHT22;28312;43.460;11.810;2023-12-28T01:54:42;8.50;75.30
42135;DHT22;28312;43.460;11.810;2023-12-28T01:58:49;8.60;75.30
42135;DHT22;28312;43.460;11.810;2023-12-28T02:02:53;8.60;75.30
42135;DHT22;28312;43.460;11.810;2023-12-28T02:06:59;8.70;75.20
42135;DHT22;28312;43.460;11.810;2023-12-28T02:11:03;8.70;75.10
42135;DHT22;28312;43.460;11.810;2023-12-28T02:15:07;8.70;75.20
42135;DHT22;28312;43.460;11.810;2023-12-28T02:19:33;8.70;75.20
42135;DHT22;28312;43.460;11.810;2023-12-28T02:23:49;8.70;75.30
42135;DHT22;28312;43.460;11.810;2023-12-28T02:27:53;8.60;75.40
42135;DHT22;28312;43.460;11.810;2023-12-28T02:32:01;8.70;75.40
42135;DHT22;28312;43.460;11.810;2023-12-28T02:36:13;8.70;75.40
42135;DHT22;28312;43.460;11.810;2023-12-28T02:40:21;8.70;75.40
42135;DHT22;28312;43.460;11.810;2023-12-28T02:44:25;8.70;75.40
42135;DHT22;28312;43.460;11.810;2023-12-28T02:48:29;8.70;75.50
42135;DHT22;28312;43.460;11.810;2023-12-28T02:52:33;8.60;75.60
42135;DHT22;28312;43.460;11.810;2023-12-28T02:56:39;8.70;75.70
42135;DHT22;28312;43.460;11.810;2023-12-28T03:00:45;8.60;75.60
42135;DHT22;28312;43.460;11.810;2023-12-28T03:04:49;8.70;75.70
42135;DHT22;28312;43.460;11.810;2023-12-28T03:08:52;8.70;75.70
42135;DHT22;28312;43.460;11.810;2023-12-28T03:12:56;8.70;75.60
42135;DHT22;28312;43.460;11.810;2023-12-28T03:17:01;8.70;75.60
42135;DHT22;28312;43.460;11.810;2023-12-28T03:21:05;8.70;75.60
42135;DHT22;28312;43.460;11.810;2023-12-28T03:25:09;8.70;75.50
42135;DHT22;28312;43.460;11.810;2023-12-28T03:29:13;8.70;75.60
42135;DHT22;28312;43.460;11.810;2023-12-28T03:33:17;8.70;75.60
42135;DHT22;28312;43.460;11.810;2023-12-28T03:37:20;8.70;75.50
42135;DHT22;28312;43.460;11.810;2023-12-28T03:41:25;8.70;75.60
42135;DHT22;28312;43.460;11.810;2023-12-28T03:45:29;8.70;75.60
42135;DHT22;28312;43.460;11.810;2023-12-28T03:49:32;8.80;75.50
42135;DHT22;28312;43.460;11.810;2023-12-28T03:53:36;8.80;75.60
42135;DHT22;28312;43.460;11.810;2023-12-28T03:57:40;8.80;75.70
42135;DHT22;28312;43.460;11.810;2023-12-28T04:01:45;8.80;75.60
42135;DHT22;28312;43.460;11.810;2023-12-28T04:05:52;8.80;75.70
42135;DHT22;28312;43.460;11.810;2023-12-28T04:09:56;8.80;75.70
42135;DHT22;28312;43.460;11.810;2023-12-28T04:14:01;8.90;75.70
42135;DHT22;28312;43.460;11.810;2023-12-28T04:18:05;8.90;75.70
42135;DHT22;28312;43.460;11.810;2023-12-28T04:22:09;8.80;75.80
42135;DHT22;28312;43.460;11.810;2023-12-28T04:26:12;8.90;75.80
42135;DHT22;28312;43.460;11.810;2023-12-28T04:30:16;8.90;75.70
42135;DHT22;28312;43.460;11.810;2023-12-28T04:34:20;8.90;75.60
42135;DHT22;28312;43.460;11.810;2023-12-28T04:38:25;8.90;75.60
42135;DHT22;28312;43.460;11.810;2023-12-28T04:42:29;9.00;75.60
42135;DHT22;28312;43.460;11.810;2023-12-28T04:46:32;9.00;75.60
42135;DHT22;28312;43.460;11.810;2023-12-28T04:50:43;8.90;75.70
42135;DHT22;28312;43.460;11.810;2023-12-28T04:54:47;8.90;75.80
42135;DHT22;28312;43.460;11.810;2023-12-28T04:58:51;8.90;75.80
42135;DHT22;28312;43.460;11.810;2023-12-28T05:02:54;9.00;75.90
42135;DHT22;28312;43.460;11.810;2023-12-28T05:06:58;9.00;75.90
42135;DHT22;28312;43.460;11.810;2023-12-28T05:11:02;9.00;75.90
42135;DHT22;28312;43.460;11.810;2023-12-28T05:15:06;9.00;76.00
42135;DHT22;28312;43.460;11.810;2023-12-28T05:19:09;8.90;76.10
42135;DHT22;28312;43.460;11.810;2023-12-28T05:23:14;8.90;76.20
42135;DHT22;28312;43.460;11.810;2023-12-28T05:27:17;8.90;76.10
42135;DHT22;28312;43.460;11.810;2023-12-28T05:31:21;8.80;76.20
42135;DHT22;28312;43.460;11.810;2023-12-28T05:35:25;8.80;76.10
42135;DHT22;28312;43.460;11.810;2023-12-28T05:39:29;8.90;75.90
42135;DHT22;28312;43.460;11.810;2023-12-28T05:43:33;8.80;75.90
42135;DHT22;28312;43.460;11.810;2023-12-28T05:47:36;8.80;75.90
42135;DHT22;28312;43.460;11.810;2023-12-28T05:51:40;8.80;75.90
42135;DHT22;28312;43.460;11.810;2023-12-28T05:55:44;8.70;75.90
42135;DHT22;28312;43.460;11.810;2023-12-28T05:59:48;8.70;75.80
42135;DHT22;28312;43.460;11.810;2023-12-28T06:03:51;8.70;75.90
42135;DHT22;28312;43.460;11.810;2023-12-28T06:07:56;8.70;75.90
42135;DHT22;28312;43.460;11.810;2023-12-28T06:12:00;8.70;75.90
42135;DHT22;28312;43.460;11.810;2023-12-28T06:16:03;8.70;75.90
42135;DHT22;28312;43.460;11.810;2023-12-28T06:20:08;8.70;75.90
42135;DHT22;28312;43.460;11.810;2023-12-28T06:24:12;8.70;75.90
42135;DHT22;28312;43.460;11.810;2023-12-28T06:28:15;8.70;75.90
42135;DHT22;28312;43.460;11.810;2023-12-28T06:32:20;8.70;75.80
42135;DHT22;28312;43.460;11.810;2023-12-28T06:36:26;8.70;75.70
42135;DHT22;28312;43.460;11.810;2023-12-28T06:40:30;8.70;75.80
42135;DHT22;28312;43.460;11.810;2023-12-28T06:44:34;8.70;75.70
42135;DHT22;28312;43.460;11.810;2023-12-28T06:48:37;8.70;75.80
42135;DHT22;28312;43.460;11.810;2023-12-28T06:52:44;8.70;75.70
42135;DHT22;28312;43.460;11.810;2023-12-28T06:56:48;8.70;75.70
42135;DHT22;28312;43.460;11.810;2023-12-28T07:00:51;8.70;75.80
42135;DHT22;28312;43.460;11.810;2023-12-28T07:04:55;8.70;75.90
42135;DHT22;28312;43.460;11.810;2023-12-28T07:08:59;8.70;76.00
42135;DHT22;28312;43.460;11.810;2023-12-28T07:13:02;8.70;76.00
42135;DHT22;28312;43.460;11.810;2023-12-28T07:17:06;8.70;76.00
42135;DHT22;28312;43.460;11.810;2023-12-28T07:21:10;8.70;76.00
42135;DHT22;28312;43.460;11.810;2023-12-28T07:25:14;8.80;76.00
42135;DHT22;28312;43.460;11.810;2023-12-28T07:29:18;8.70;76.10
42135;DHT22;28312;43.460;11.810;2023-12-28T07:33:22;8.70;76.30
42135;DHT22;28312;43.460;11.810;2023-12-28T07:37:27;8.80;76.40
42135;DHT22;28312;43.460;11.810;2023-12-28T07:41:30;8.80;76.40
42135;DHT22;28312;43.460;11.810;2023-12-28T07:45:34;8.80;76.40
42135;DHT22;28312;43.460;11.810;2023-12-28T07:49:38;8.90;76.40
42135;DHT22;28312;43.460;11.810;2023-12-28T07:53:42;8.90;76.40
42135;DHT22;28312;43.460;11.810;2023-12-28T07:57:46;8.90;76.50
42135;DHT22;28312;43.460;11.810;2023-12-28T08:01:50;9.00;76.50
42135;DHT22;28312;43.460;11.810;2023-12-28T08:05:53;9.00;76.50
42135;DHT22;28312;43.460;11.810;2023-12-28T08:09:57;9.10;76.40
42135;DHT22;28312;43.460;11.810;2023-12-28T08:14:01;9.20;76.40
42135;DHT22;28312;43.460;11.810;2023-12-28T08:18:04;9.20;76.30
42135;DHT22;28312;43.460;11.810;2023-12-28T08:22:08;9.20;76.20
42135;DHT22;28312;43.460;11.810;2023-12-28T08:26:12;9.30;76.20
42135;DHT22;28312;43.460;11.810;2023-12-28T08:30:16;9.30;76.30
42135;DHT22;28312;43.460;11.810;2023-12-28T08:34:19;9.30;76.30
42135;DHT22;28312;43.460;11.810;2023-12-28T08:38:23;9.40;76.20
42135;DHT22;28312;43.460;11.810;2023-12-28T08:42:27;9.50;76.10
42135;DHT22;28312;43.460;11.810;2023-12-28T08:46:31;9.50;76.00
42135;DHT22;28312;43.460;11.810;2023-12-28T08:50:35;9.50;76.00
42135;DHT22;28312;43.460;11.810;2023-12-28T08:54:40;9.50;76.10
42135;DHT22;28312;43.460;11.810;2023-12-28T08:58:45;9.50;76.20
42135;DHT22;28312;43.460;11.810;2023-12-28T09:02:50;9.50;76.20
42135;DHT22;28312;43.460;11.810;2023-12-28T09:06:54;9.60;76.10
42135;DHT22;28312;43.460;11.810;2023-12-28T09:11:02;9.70;76.20
42135;DHT22;28312;43.460;11.810;2023-12-28T09:15:07;9.70;76.30
42135;DHT22;28312;43.460;11.810;2023-12-28T09:19:11;9.70;76.10
42135;DHT22;28312;43.460;11.810;2023-12-28T09:23:15;9.80;76.20
42135;DHT22;28312;43.460;11.810;2023-12-28T09:27:18;9.80;76.20
42135;DHT22;28312;43.460;11.810;2023-12-28T09:31:22;10.00;76.10
42135;DHT22;28312;43.460;11.810;2023-12-28T09:35:26;10.00;76.10
42135;DHT22;28312;43.460;11.810;2023-12-28T09:39:30;10.00;76.10
42135;DHT22;28312;43.460;11.810;2023-12-28T09:43:38;10.00;76.20
42135;DHT22;28312;43.460;11.810;2023-12-28T09:47:45;10.00;76.20
42135;DHT22;28312;43.460;11.810;2023-12-28T09:51:49;10.10;76.20
42135;DHT22;28312;43.460;11.810;2023-12-28T09:55:53;10.20;76.20
42135;DHT22;28312;43.460;11.810;2023-12-28T09:59:57;10.30;76.20
42135;DHT22;28312;43.460;11.810;2023-12-28T10:04:01;10.40;76.00
42135;DHT22;28312;43.460;11.810;2023-12-28T10:08:06;10.40;75.80
42135;DHT22;28312;43.460;11.810;2023-12-28T10:12:10;10.40;75.80
42135;DHT22;28312;43.460;11.810;2023-12-28T10:16:15;10.40;75.90
42135;DHT22;28312;43.460;11.810;2023-12-28T10:20:18;10.50;76.10
42135;DHT22;28312;43.460;11.810;2023-12-28T10:24:23;10.50;76.30
42135;DHT22;28312;43.460;11.810;2023-12-28T10:28:26;10.70;76.40
42135;DHT22;28312;43.460;11.810;2023-12-28T10:32:30;10.80;76.30
42135;DHT22;28312;43.460;11.810;2023-12-28T10:36:34;11.00;76.50
42135;DHT22;28312;43.460;11.810;2023-12-28T10:40:40;11.20;76.50
42135;DHT22;28312;43.460;11.810;2023-12-28T10:44:46;11.30;76.30
42135;DHT22;28312;43.460;11.810;2023-12-28T10:48:56;11.50;76.00
42135;DHT22;28312;43.460;11.810;2023-12-28T10:53:11;11.60;76.00
42135;DHT22;28312;43.460;11.810;2023-12-28T10:57:29;11.70;76.00
42135;DHT22;28312;43.460;11.810;2023-12-28T11:01:37;11.90;75.70
42135;DHT22;28312;43.460;11.810;2023-12-28T11:05:43;12.00;75.60
42135;DHT22;28312;43.460;11.810;2023-12-28T11:09:48;12.10;75.60
42135;DHT22;28312;43.460;11.810;2023-12-28T11:13:56;12.20;75.40
42135;DHT22;28312;43.460;11.810;2023-12-28T11:18:03;12.30;75.50
42135;DHT22;28312;43.460;11.810;2023-12-28T11:22:07;12.40;75.50
42135;DHT22;28312;43.460;11.810;2023-12-28T11:26:29;12.60;75.40
42135;DHT22;28312;43.460;11.810;2023-12-28T11:30:33;12.70;75.10
42135;DHT22;28312;43.460;11.810;2023-12-28T11:34:37;12.80;74.50
42135;DHT22;28312;43.460;11.810;2023-12-28T11:38:42;12.80;74.30
42135;DHT22;28312;43.460;11.810;2023-12-28T11:42:53;12.70;73.90
42135;DHT22;28312;43.460;11.810;2023-12-28T11:46:57;12.60;73.80
42135;DHT22;28312;43.460;11.810;2023-12-28T11:51:01;12.50;73.70
42135;DHT22;28312;43.460;11.810;2023-12-28T11:55:06;12.30;74.10
42135;DHT22;28312;43.460;11.810;2023-12-28T11:59:10;12.20;74.40
42135;DHT22;28312;43.460;11.810;2023-12-28T12:03:14;12.20;74.50
42135;DHT22;28312;43.460;11.810;2023-12-28T12:07:17;12.20;74.40
42135;DHT22;28312;43.460;11.810;2023-12-28T12:11:21;12.20;74.40
42135;DHT22;28312;43.460;11.810;2023-12-28T12:15:25;12.20;74.40
42135;DHT22;28312;43.460;11.810;2023-12-28T12:19:29;12.20;74.40
42135;DHT22;28312;43.460;11.810;2023-12-28T12:23:33;12.20;74.40
42135;DHT22;28312;43.460;11.810;2023-12-28T12:27:37;12.10;74.40
42135;DHT22;28312;43.460;11.810;2023-12-28T12:31:42;12.10;74.40
42135;DHT22;28312;43.460;11.810;2023-12-28T12:35:47;12.10;74.30
42135;DHT22;28312;43.460;11.810;2023-12-28T12:39:51;12.10;74.40
42135;DHT22;28312;43.460;11.810;2023-12-28T12:43:57;12.00;74.50
42135;DHT22;28312;43.460;11.810;2023-12-28T12:48:03;12.00;74.50
42135;DHT22;28312;43.460;11.810;2023-12-28T12:52:08;12.00;74.50
42135;DHT22;28312;43.460;11.810;2023-12-28T12:56:11;12.10;74.50
42135;DHT22;28312;43.460;11.810;2023-12-28T13:00:15;12.00;74.50
42135;DHT22;28312;43.460;11.810;2023-12-28T13:04:20;12.10;74.50
42135;DHT22;28312;43.460;11.810;2023-12-28T13:08:25;12.10;74.50
42135;DHT22;28312;43.460;11.810;2023-12-28T13:12:28;12.10;74.50
42135;DHT22;28312;43.460;11.810;2023-12-28T13:16:32;12.10;74.50
42135;DHT22;28312;43.460;11.810;2023-12-28T13:20:35;12.20;74.50
42135;DHT22;28312;43.460;11.810;2023-12-28T13:24:39;12.20;74.50
42135;DHT22;28312;43.460;11.810;2023-12-28T13:28:43;12.20;74.40
42135;DHT22;28312;43.460;11.810;2023-12-28T13:32:47;12.30;74.30
42135;DHT22;28312;43.460;11.810;2023-12-28T13:36:51;12.30;74.30
42135;DHT22;28312;43.460;11.810;2023-12-28T13:40:55;12.30;74.20
42135;DHT22;28312;43.460;11.810;2023-12-28T13:44:58;12.40;74.20
42135;DHT22;28312;43.460;11.810;2023-12-28T13:49:02;12.40;74.20
42135;DHT22;28312;43.460;11.810;2023-12-28T13:53:07;12.30;74.20
42135;DHT22;28312;43.460;11.810;2023-12-28T13:57:11;12.40;74.20
42135;DHT22;28312;43.460;11.810;2023-12-28T14:01:15;12.40;74.20
42135;DHT22;28312;43.460;11.810;2023-12-28T14:05:19;12.30;74.30
42135;DHT22;28312;43.460;11.810;2023-12-28T14:09:23;12.40;74.20
42135;DHT22;28312;43.460;11.810;2023-12-28T14:13:27;12.40;74.20
42135;DHT22;28312;43.460;11.810;2023-12-28T14:17:32;12.40;74.10
42135;DHT22;28312;43.460;11.810;2023-12-28T14:21:38;12.40;74.10
42135;DHT22;28312;43.460;11.810;2023-12-28T14:25:42;12.40;74.10
42135;DHT22;28312;43.460;11.810;2023-12-28T14:29:46;12.30;74.10
42135;DHT22;28312;43.460;11.810;2023-12-28T14:33:50;12.30;74.20
42135;DHT22;28312;43.460;11.810;2023-12-28T14:37:54;12.20;74.20
42135;DHT22;28312;43.460;11.810;2023-12-28T14:41:58;12.30;74.20
42135;DHT22;28312;43.460;11.810;2023-12-28T14:46:06;12.30;74.10
42135;DHT22;28312;43.460;11.810;2023-12-28T14:50:10;12.30;74.00
42135;DHT22;28312;43.460;11.810;2023-12-28T14:54:14;12.30;74.00
42135;DHT22;28312;43.460;11.810;2023-12-28T14:58:18;12.20;74.00
42135;DHT22;28312;43.460;11.810;2023-12-28T15:02:25;12.20;73.90
42135;DHT22;28312;43.460;11.810;2023-12-28T15:06:29;12.00;74.10
42135;DHT22;28312;43.460;11.810;2023-12-28T15:10:33;11.80;74.20
42135;DHT22;28312;43.460;11.810;2023-12-28T15:14:38;11.80;74.40
42135;DHT22;28312;43.460;11.810;2023-12-28T15:18:42;11.70;74.50
42135;DHT22;28312;43.460;11.810;2023-12-28T15:22:46;11.70;74.50
42135;DHT22;28312;43.460;11.810;2023-12-28T15:26:50;11.70;74.50
42135;DHT22;28312;43.460;11.810;2023-12-28T15:30:54;11.60;74.70
42135;DHT22;28312;43.460;11.810;2023-12-28T15:34:57;11.50;74.80
42135;DHT22;28312;43.460;11.810;2023-12-28T15:39:04;11.60;74.90
42135;DHT22;28312;43.460;11.810;2023-12-28T15:43:08;11.60;74.80
42135;DHT22;28312;43.460;11.810;2023-12-28T15:47:13;11.50;74.70
42135;DHT22;28312;43.460;11.810;2023-12-28T15:51:17;11.50;74.80
42135;DHT22;28312;43.460;11.810;2023-12-28T15:55:21;11.40;75.00
42135;DHT22;28312;43.460;11.810;2023-12-28T15:59:25;11.50;75.00
42135;DHT22;28312;43.460;11.810;2023-12-28T16:03:29;11.50;75.00
42135;DHT22;28312;43.460;11.810;2023-12-28T16:07:33;11.50;75.10
42135;DHT22;28312;43.460;11.810;2023-12-28T16:11:38;11.40;75.20
42135;DHT22;28312;43.460;11.810;2023-12-28T16:15:42;11.40;75.20
42135;DHT22;28312;43.460;11.810;2023-12-28T16:19:47;11.40;75.10
42135;DHT22;28312;43.460;11.810;2023-12-28T16:23:51;11.40;75.10
42135;DHT22;28312;43.460;11.810;2023-12-28T16:27:55;11.40;75.10
42135;DHT22;28312;43.460;11.810;2023-12-28T16:31:59;11.40;75.10
42135;DHT22;28312;43.460;11.810;2023-12-28T16:36:04;11.40;75.00
42135;DHT22;28312;43.460;11.810;2023-12-28T16:40:08;11.30;75.00
42135;DHT22;28312;43.460;11.810;2023-12-28T16:44:13;11.30;75.10
42135;DHT22;28312;43.460;11.810;2023-12-28T16:48:17;11.30;75.10
42135;DHT22;28312;43.460;11.810;2023-12-28T16:52:22;11.20;75.10
42135;DHT22;28312;43.460;11.810;2023-12-28T16:56:26;11.30;75.00
42135;DHT22;28312;43.460;11.810;2023-12-28T17:00:31;11.30;74.90
42135;DHT22;28312;43.460;11.810;2023-12-28T17:04:41;11.20;75.00
42135;DHT22;28312;43.460;11.810;2023-12-28T17:08:46;11.10;75.30
42135;DHT22;28312;43.460;11.810;2023-12-28T17:12:50;11.00;75.40
42135;DHT22;28312;43.460;11.810;2023-12-28T17:16:54;11.00;75.50
42135;DHT22;28312;43.460;11.810;2023-12-28T17:21:00;11.00;75.60
42135;DHT22;28312;43.460;11.810;2023-12-28T17:25:14;11.00;75.60
42135;DHT22;28312;43.460;11.810;2023-12-28T17:29:21;10.90;75.60
42135;DHT22;28312;43.460;11.810;2023-12-28T17:33:27;10.90;75.50
42135;DHT22;28312;43.460;11.810;2023-12-28T17:37:31;11.00;75.50
42135;DHT22;28312;43.460;11.810;2023-12-28T17:41:37;10.90;75.60
42135;DHT22;28312;43.460;11.810;2023-12-28T17:45:47;10.90;75.60
42135;DHT22;28312;43.460;11.810;2023-12-28T17:49:55;10.70;75.60
42135;DHT22;28312;43.460;11.810;2023-12-28T17:54:01;10.70;75.90
42135;DHT22;28312;43.460;11.810;2023-12-28T17:58:06;10.70;75.80
42135;DHT22;28312;43.460;11.810;2023-12-28T18:02:11;10.70;76.00
42135;DHT22;28312;43.460;11.810;2023-12-28T18:06:18;10.70;76.10
42135;DHT22;28312;43.460;11.810;2023-12-28T18:10:22;10.70;76.20
42135;DHT22;28312;43.460;11.810;2023-12-28T18:14:25;10.70;76.20
42135;DHT22;28312;43.460;11.810;2023-12-28T18:18:31;10.70;76.20
42135;DHT22;28312;43.460;11.810;2023-12-28T18:22:38;10.70;76.10
42135;DHT22;28312;43.460;11.810;2023-12-28T18:26:44;10.70;76.30
42135;DHT22;28312;43.460;11.810;2023-12-28T18:30:49;10.70;76.30
42135;DHT22;28312;43.460;11.810;2023-12-28T18:34:53;10.70;76.30
42135;DHT22;28312;43.460;11.810;2023-12-28T18:38:56;10.70;76.40
42135;DHT22;28312;43.460;11.810;2023-12-28T18:43:01;10.70;76.50
42135;DHT22;28312;43.460;11.810;2023-12-28T18:47:08;10.70;76.50
42135;DHT22;28312;43.460;11.810;2023-12-28T18:51:14;10.80;76.50
42135;DHT22;28312;43.460;11.810;2023-12-28T18:55:18;10.80;76.60
42135;DHT22;28312;43.460;11.810;2023-12-28T18:59:22;10.80;76.60
42135;DHT22;28312;43.460;11.810;2023-12-28T19:03:30;10.80;76.60
42135;DHT22;28312;43.460;11.810;2023-12-28T19:07:50;10.80;76.60
42135;DHT22;28312;43.460;11.810;2023-12-28T19:11:54;10.80;76.60
42135;DHT22;28312;43.460;11.810;2023-12-28T19:15:58;10.80;76.60
42135;DHT22;28312;43.460;11.810;2023-12-28T19:20:02;10.70;76.60
42135;DHT22;28312;43.460;11.810;2023-12-28T19:24:06;10.70;76.70
42135;DHT22;28312;43.460;11.810;2023-12-28T19:28:10;10.70;76.80
42135;DHT22;28312;43.460;11.810;2023-12-28T19:32:15;10.70;76.90
42135;DHT22;28312;43.460;11.810;2023-12-28T19:36:18;10.70;76.90
42135;DHT22;28312;43.460;11.810;2023-12-28T19:40:23;10.70;76.90
42135;DHT22;28312;43.460;11.810;2023-12-28T19:44:27;10.70;76.90
42135;DHT22;28312;43.460;11.810;2023-12-28T19:48:32;10.70;76.90
42135;DHT22;28312;43.460;11.810;2023-12-28T19:52:36;10.70;76.80
42135;DHT22;28312;43.460;11.810;2023-12-28T19:56:39;10.80;76.90
42135;DHT22;28312;43.460;11.810;2023-12-28T20:00:44;10.80;76.80
42135;DHT22;28312;43.460;11.810;2023-12-28T20:04:48;10.80;76.90
42135;DHT22;28312;43.460;11.810;2023-12-28T20:08:52;10.80;76.90
42135;DHT22;28312;43.460;11.810;2023-12-28T20:12:55;10.80;76.90
42135;DHT22;28312;43.460;11.810;2023-12-28T20:16:59;10.80;76.90
42135;DHT22;28312;43.460;11.810;2023-12-28T20:21:03;10.80;76.90
42135;DHT22;28312;43.460;11.810;2023-12-28T20:25:07;10.70;77.00
42135;DHT22;28312;43.460;11.810;2023-12-28T20:29:13;10.80;77.00
42135;DHT22;28312;43.460;11.810;2023-12-28T20:33:16;10.70;77.00
42135;DHT22;28312;43.460;11.810;2023-12-28T20:37:21;10.70;77.00
42135;DHT22;28312;43.460;11.810;2023-12-28T20:41:24;10.70;77.00
42135;DHT22;28312;43.460;11.810;2023-12-28T20:45:28;10.70;77.00
42135;DHT22;28312;43.460;11.810;2023-12-28T20:49:32;10.70;77.00
42135;DHT22;28312;43.460;11.810;2023-12-28T20:53:48;10.80;76.90
42135;DHT22;28312;43.460;11.810;2023-12-28T20:57:51;10.80;76.80
42135;DHT22;28312;43.460;11.810;2023-12-28T21:01:56;10.80;76.80
42135;DHT22;28312;43.460;11.810;2023-12-28T21:05:59;10.80;76.90
42135;DHT22;28312;43.460;11.810;2023-12-28T21:10:04;10.80;76.90
42135;DHT22;28312;43.460;11.810;2023-12-28T21:14:08;10.80;76.90
42135;DHT22;28312;43.460;11.810;2023-12-28T21:18:16;10.80;76.90
42135;DHT22;28312;43.460;11.810;2023-12-28T21:22:33;10.80;76.90
42135;DHT22;28312;43.460;11.810;2023-12-28T21:26:36;10.80;76.90
42135;DHT22;28312;43.460;11.810;2023-12-28T21:30:40;10.80;76.90
42135;DHT22;28312;43.460;11.810;2023-12-28T21:34:44;10.80;76.90
42135;DHT22;28312;43.460;11.810;2023-12-28T21:38:48;10.90;76.80
42135;DHT22;28312;43.460;11.810;2023-12-28T21:42:51;10.80;76.80
42135;DHT22;28312;43.460;11.810;2023-12-28T21:46:57;10.90;76.80
42135;DHT22;28312;43.460;11.810;2023-12-28T21:51:00;10.90;76.80
42135;DHT22;28312;43.460;11.810;2023-12-28T21:55:05;10.90;76.70
42135;DHT22;28312;43.460;11.810;2023-12-28T21:59:09;10.90;76.70
42135;DHT22;28312;43.460;11.810;2023-12-28T22:03:14;10.90;76.70
42135;DHT22;28312;43.460;11.810;2023-12-28T22:07:18;10.90;76.70
42135;DHT22;28312;43.460;11.810;2023-12-28T22:11:22;10.90;76.80
42135;DHT22;28312;43.460;11.810;2023-12-28T22:15:26;10.80;76.90
42135;DHT22;28312;43.460;11.810;2023-12-28T22:19:31;10.80;76.90
42135;DHT22;28312;43.460;11.810;2023-12-28T22:23:34;10.90;76.90
42135;DHT22;28312;43.460;11.810;2023-12-28T22:27:38;10.90;77.00
42135;DHT22;28312;43.460;11.810;2023-12-28T22:31:42;10.90;77.10
42135;DHT22;28312;43.460;11.810;2023-12-28T22:35:47;10.80;77.20
42135;DHT22;28312;43.460;11.810;2023-12-28T22:39:51;10.80;77.30
42135;DHT22;28312;43.460;11.810;2023-12-28T22:43:55;10.80;77.30
42135;DHT22;28312;43.460;11.810;2023-12-28T22:47:59;10.80;77.40
42135;DHT22;28312;43.460;11.810;2023-12-28T22:52:03;10.80;77.50
42135;DHT22;28312;43.460;11.810;2023-12-28T22:56:12;10.80;77.50
42135;DHT22;28312;43.460;11.810;2023-12-28T23:00:15;10.80;77.50
42135;DHT22;28312;43.460;11.810;2023-12-28T23:04:27;10.80;77.50
42135;DHT22;28312;43.460;11.810;2023-12-28T23:08:36;10.80;77.50
42135;DHT22;28312;43.460;11.810;2023-12-28T23:12:40;10.80;77.50
42135;DHT22;28312;43.460;11.810;2023-12-28T23:16:44;10.80;77.50
42135;DHT22;28312;43.460;11.810;2023-12-28T23:20:47;10.80;77.60
42135;DHT22;28312;43.460;11.810;2023-12-28T23:24:51;10.70;77.50
42135;DHT22;28312;43.460;11.810;2023-12-28T23:28:55;10.70;77.50
42135;DHT22;28312;43.460;11.810;2023-12-28T23:32:58;10.70;77.50
42135;DHT22;28312;43.460;11.810;2023-12-28T23:37:02;10.70;77.60
42135;DHT22;28312;43.460;11.810;2023-12-28T23:41:06;10.60;77.60
42135;DHT22;28312;43.460;11.810;2023-12-28T23:45:09;10.60;77.70
42135;DHT22;28312;43.460;11.810;2023-12-28T23:49:13;10.60;77.70
42135;DHT22;28312;43.460;11.810;2023-12-28T23:53:18;10.50;77.70
42135;DHT22;28312;43.460;11.810;2023-12-28T23:57:21;10.60;77.80
